Main page
METAR-TAF:

METAR-TAF

Airports :

Seville Airport

Seville, Spain

latitude: 37-25N, longitude: 005-54W, elevation: 34 m

Current weather observation

The report was made 16 minutes ago, at 23:00 UTC
Wind 5 kt from the South/Southwest
Temperature
Pressure 1016 hPa
Visibility 10 km or more
no clouds below 1500 m and no cumulonimbus

METAR: LEZL 052300Z 21005KT CAVOK ///// Q1016 NOSIG

Time: 01:16 (23:16 UTC)

Forecast

The report was made 3 hours and 16 minutes ago, at 20:00 UTC
Forecast valid from 05 at 21 UTC to 06 at 21 UTC
Wind 6 kt from the Southwest
Visibility 10 km or more
no clouds below 1500 m and no cumulonimbus

TAF: LEZL 052000Z 0521/0621 23006KT CAVOK TX41/0615Z TN22/0605Z

Weather observations and forecasts of more than 4000 airports (METAR and TAF reports).

The available stations are represented by yellow and red dots on the map.

Hover mouse over dot to see the name of the station.

Then click to see weather observations and forecasts.

To change the map : click on the green buttons with a black cross to zoom in, on the green button with a dash to zoom out, or on the green arrows for adjacent maps.


METAR-TAF: